createdAt,value
2023-01-18T00:00:25.474Z,976.16
2023-01-18T00:05:25.420Z,976.24
2023-01-18T00:10:25.352Z,976.20
2023-01-18T00:15:25.306Z,976.17
2023-01-18T00:20:25.205Z,976.19
2023-01-18T00:25:25.130Z,976.26
2023-01-18T00:30:25.142Z,976.30
2023-01-18T00:35:24.992Z,976.27
2023-01-18T00:40:24.962Z,976.28
2023-01-18T00:45:24.967Z,976.25
2023-01-18T00:50:24.924Z,976.25
2023-01-18T00:55:24.758Z,976.29
2023-01-18T01:00:24.686Z,976.32
2023-01-18T01:05:24.678Z,976.27
2023-01-18T01:10:24.559Z,976.18
2023-01-18T01:15:24.507Z,976.15
2023-01-18T01:20:24.475Z,976.13
2023-01-18T01:25:24.432Z,976.21
2023-01-18T01:30:24.368Z,976.24
2023-01-18T01:35:24.266Z,976.29
2023-01-18T01:40:24.202Z,976.13
2023-01-18T01:45:24.140Z,976.12
2023-01-18T01:50:24.047Z,976.09
2023-01-18T01:55:23.990Z,976.04
2023-01-18T02:00:23.972Z,976.10
2023-01-18T02:05:23.851Z,975.96
2023-01-18T02:10:24.073Z,976.05
2023-01-18T02:15:23.749Z,976.03
2023-01-18T02:20:23.657Z,976.04
2023-01-18T02:25:23.673Z,975.98
2023-01-18T02:30:23.535Z,976.02
2023-01-18T02:35:23.477Z,976.09
2023-01-18T02:40:23.402Z,976.00
2023-01-18T02:45:23.379Z,976.05
2023-01-18T02:50:23.330Z,976.09
2023-01-18T02:55:23.195Z,976.09
2023-01-18T03:00:23.166Z,976.05
2023-01-18T03:05:23.896Z,976.03
2023-01-18T03:10:23.051Z,975.99
2023-01-18T03:15:22.945Z,976.16
2023-01-18T03:20:25.356Z,976.23
2023-01-18T03:25:22.811Z,976.17
2023-01-18T03:30:22.780Z,976.13
2023-01-18T03:35:22.702Z,976.11
2023-01-18T03:40:22.626Z,976.22
2023-01-18T03:45:22.603Z,976.26
2023-01-18T03:50:22.507Z,976.19
2023-01-18T03:55:22.428Z,976.18
2023-01-18T04:00:22.387Z,976.04
2023-01-18T04:05:22.364Z,976.09
2023-01-18T04:10:22.242Z,976.06
2023-01-18T04:15:22.171Z,976.21
2023-01-18T04:20:22.141Z,976.15
2023-01-18T04:25:22.102Z,976.09
2023-01-18T04:30:21.980Z,976.06
2023-01-18T04:35:21.904Z,976.07
2023-01-18T04:40:21.869Z,976.11
2023-01-18T04:45:21.804Z,976.20
2023-01-18T04:50:21.748Z,976.17
2023-01-18T04:55:21.728Z,976.29
2023-01-18T05:00:21.652Z,976.34
2023-01-18T05:05:21.526Z,976.52
2023-01-18T05:10:21.510Z,976.52
2023-01-18T05:15:21.448Z,976.46
2023-01-18T05:20:21.346Z,976.43
2023-01-18T05:25:21.287Z,976.42
2023-01-18T05:30:21.231Z,976.47
2023-01-18T05:35:21.222Z,976.49
2023-01-18T05:40:21.156Z,976.62
2023-01-18T05:45:21.107Z,976.68
2023-01-18T05:50:20.971Z,976.75
2023-01-18T05:55:20.911Z,976.76
2023-01-18T06:00:20.862Z,976.70
2023-01-18T06:05:20.776Z,976.80
2023-01-18T06:10:20.686Z,976.69
2023-01-18T06:15:20.646Z,976.69
2023-01-18T06:20:20.565Z,976.68
2023-01-18T06:25:20.506Z,976.58
2023-01-18T06:30:20.443Z,976.60
2023-01-18T06:35:20.387Z,976.62
2023-01-18T06:40:20.310Z,976.72
2023-01-18T06:45:20.241Z,976.91
2023-01-18T06:50:20.217Z,976.89
2023-01-18T06:55:20.117Z,976.93
2023-01-18T07:00:20.064Z,976.87
2023-01-18T07:05:20.026Z,976.91
2023-01-18T07:10:19.922Z,977.05
2023-01-18T07:15:22.545Z,977.02
2023-01-18T07:20:19.999Z,977.06
2023-01-18T07:25:19.755Z,977.12
2023-01-18T07:30:19.674Z,977.07
2023-01-18T07:35:19.641Z,977.08
2023-01-18T07:40:19.539Z,977.23
2023-01-18T07:45:19.759Z,977.30
2023-01-18T07:50:19.490Z,977.38
2023-01-18T07:55:19.352Z,977.48
2023-01-18T08:00:19.327Z,977.56
2023-01-18T08:05:19.306Z,977.56
2023-01-18T08:10:19.195Z,977.57
2023-01-18T08:15:19.102Z,977.64
2023-01-18T08:20:20.028Z,977.74
2023-01-18T08:25:19.050Z,977.85
2023-01-18T08:30:23.081Z,977.80
2023-01-18T08:35:18.844Z,977.85
2023-01-18T08:40:18.866Z,977.88
2023-01-18T08:45:18.714Z,977.84
2023-01-18T08:50:18.685Z,977.94
2023-01-18T08:55:18.620Z,978.00
2023-01-18T09:00:18.530Z,978.05
2023-01-18T09:05:18.502Z,978.11
2023-01-18T09:10:18.418Z,978.14
2023-01-18T09:15:18.401Z,978.15
2023-01-18T09:20:19.186Z,978.35
2023-01-18T09:25:18.237Z,978.41
2023-01-18T09:30:18.193Z,978.37
2023-01-18T09:35:18.077Z,978.28
2023-01-18T09:40:18.033Z,978.39
2023-01-18T09:45:17.939Z,978.46
2023-01-18T09:50:17.883Z,978.44
2023-01-18T09:55:17.839Z,978.50
2023-01-18T10:00:17.796Z,978.50
2023-01-18T10:05:17.673Z,978.51
2023-01-18T10:10:17.648Z,978.52
2023-01-18T10:15:17.558Z,978.52
2023-01-18T10:20:17.499Z,978.54
2023-01-18T10:25:17.445Z,978.54
2023-01-18T10:30:17.368Z,978.60
2023-01-18T10:35:17.314Z,978.57
2023-01-18T10:40:17.236Z,978.56
2023-01-18T10:45:17.196Z,978.64
2023-01-18T10:50:17.120Z,978.67
2023-01-18T10:55:17.079Z,978.82
2023-01-18T11:00:17.009Z,978.84
2023-01-18T11:05:16.934Z,978.83
2023-01-18T11:10:16.854Z,978.92
2023-01-18T11:15:16.798Z,978.91
2023-01-18T11:20:16.839Z,978.90
2023-01-18T11:25:16.661Z,978.85
2023-01-18T11:30:16.882Z,979.04
2023-01-18T11:35:16.516Z,979.11
2023-01-18T11:40:16.564Z,979.14
2023-01-18T11:45:16.391Z,979.10
2023-01-18T11:50:22.187Z,979.28
2023-01-18T11:55:17.302Z,979.42
2023-01-18T12:00:16.282Z,979.48
2023-01-18T12:05:16.151Z,979.50
2023-01-18T12:10:16.100Z,979.55
2023-01-18T12:15:16.155Z,979.60
2023-01-18T12:20:16.080Z,979.60
2023-01-18T12:25:16.021Z,979.59
2023-01-18T12:30:15.909Z,979.63
2023-01-18T12:35:23.677Z,979.85
2023-01-18T12:40:16.803Z,979.93
2023-01-18T12:45:15.696Z,980.00
2023-01-18T12:50:15.569Z,980.10
2023-01-18T12:55:15.509Z,980.22
2023-01-18T13:00:15.479Z,980.29
2023-01-18T13:05:15.383Z,980.29
2023-01-18T13:10:15.347Z,980.39
2023-01-18T13:15:16.222Z,980.57
2023-01-18T13:20:15.280Z,980.56
2023-01-18T13:25:15.185Z,980.54
2023-01-18T13:30:15.172Z,980.74
2023-01-18T13:35:20.461Z,980.85
2023-01-18T13:40:16.261Z,980.92
2023-01-18T13:45:14.850Z,980.99
2023-01-18T13:50:14.772Z,980.96
2023-01-18T13:55:14.734Z,981.11
2023-01-18T14:00:14.966Z,981.16
2023-01-18T14:05:14.631Z,981.26
2023-01-18T14:10:14.517Z,981.22
2023-01-18T14:15:14.590Z,981.36
2023-01-18T14:20:14.387Z,981.38
2023-01-18T14:25:14.316Z,981.51
2023-01-18T14:30:14.245Z,981.75
2023-01-18T14:35:14.229Z,981.75
2023-01-18T14:40:14.117Z,981.94
2023-01-18T14:45:14.062Z,982.02
2023-01-18T14:50:14.042Z,982.11
2023-01-18T14:57:37.610Z,982.18
2023-01-18T15:05:01.170Z,982.39
2023-01-18T15:10:01.094Z,982.39
2023-01-18T15:15:01.057Z,982.58
2023-01-18T15:20:00.998Z,982.76
2023-01-18T15:25:00.925Z,982.82
2023-01-18T15:30:00.872Z,982.96
2023-01-18T15:35:00.796Z,983.07
2023-01-18T15:40:00.727Z,983.16
2023-01-18T15:45:00.674Z,983.35
2023-01-18T15:50:00.669Z,983.34
2023-01-18T15:55:00.551Z,983.44
2023-01-18T16:00:00.457Z,983.50
2023-01-18T16:05:00.414Z,983.65
2023-01-18T16:10:00.381Z,983.61
2023-01-18T16:15:00.285Z,983.64
2023-01-18T16:20:00.224Z,983.82
2023-01-18T16:25:00.181Z,983.80
2023-01-18T16:30:00.152Z,984.02
2023-01-18T16:35:00.320Z,984.02
2023-01-18T16:39:59.995Z,984.08
2023-01-18T16:44:59.983Z,984.19
2023-01-18T16:49:59.862Z,984.34
2023-01-18T16:54:59.780Z,984.37
2023-01-18T16:59:59.686Z,984.55
2023-01-18T17:04:59.668Z,984.55
2023-01-18T17:09:59.596Z,984.68
2023-01-18T17:14:59.514Z,984.73
2023-01-18T17:19:59.467Z,984.80
2023-01-18T17:24:59.396Z,985.01
2023-01-18T17:29:59.359Z,985.05
2023-01-18T17:34:59.282Z,985.15
2023-01-18T17:40:11.254Z,985.25
2023-01-18T17:45:00.233Z,985.31
2023-01-18T17:49:59.083Z,985.36
2023-01-18T17:54:59.086Z,985.40
2023-01-18T17:59:59.079Z,985.44
2023-01-18T18:04:58.929Z,985.44
2023-01-18T18:09:58.813Z,985.57
2023-01-18T18:14:58.943Z,985.61
2023-01-18T18:19:59.615Z,985.74
2023-01-18T18:24:58.724Z,985.88
2023-01-18T18:30:01.480Z,985.97
2023-01-18T18:34:58.631Z,986.07
2023-01-18T18:40:06.855Z,986.13
2023-01-18T18:44:58.348Z,986.23
2023-01-18T18:49:58.343Z,986.41
2023-01-18T18:54:58.235Z,986.51
2023-01-18T18:59:58.204Z,986.73
2023-01-18T19:04:58.102Z,986.76
2023-01-18T19:09:58.020Z,986.79
2023-01-18T19:14:57.967Z,986.96
2023-01-18T19:19:57.910Z,987.03
2023-01-18T19:24:57.946Z,987.15
2023-01-18T19:29:57.797Z,987.15
2023-01-18T19:34:57.682Z,987.37
2023-01-18T19:39:57.664Z,987.43
2023-01-18T19:44:59.325Z,987.51
2023-01-18T19:49:57.554Z,987.67
2023-01-18T19:54:57.486Z,987.78
2023-01-18T19:59:57.426Z,987.95
2023-01-18T20:04:57.323Z,988.05
2023-01-18T20:09:57.242Z,988.15
2023-01-18T20:14:57.158Z,988.28
2023-01-18T20:19:57.103Z,988.29
2023-01-18T20:24:57.052Z,988.32
2023-01-18T20:29:56.981Z,988.46
2023-01-18T20:34:56.984Z,988.57
2023-01-18T20:39:56.849Z,988.50
2023-01-18T20:44:56.768Z,988.56
2023-01-18T20:49:56.729Z,988.61
2023-01-18T20:54:56.696Z,988.71
2023-01-18T20:59:56.563Z,988.73
2023-01-18T21:04:56.534Z,988.75
2023-01-18T21:09:56.557Z,988.82
2023-01-18T21:14:56.414Z,988.86
2023-01-18T21:19:56.312Z,988.82
2023-01-18T21:24:57.278Z,988.86
2023-01-18T21:29:56.285Z,988.83
2023-01-18T21:34:56.304Z,988.94
2023-01-18T21:39:56.087Z,988.93
2023-01-18T21:44:56.352Z,988.90
2023-01-18T21:50:16.504Z,989.01
2023-01-18T21:54:56.898Z,989.08
2023-01-18T21:59:55.837Z,989.11
2023-01-18T22:04:55.774Z,989.22
2023-01-18T22:10:04.563Z,989.24
2023-01-18T22:14:56.625Z,989.18
2023-01-18T22:19:55.572Z,989.39
2023-01-18T22:24:55.550Z,989.42
2023-01-18T22:29:56.206Z,989.38
2023-01-18T22:34:55.323Z,989.41
2023-01-18T22:39:55.276Z,989.48
2023-01-18T22:44:55.204Z,989.51
2023-01-18T22:49:55.145Z,989.45
2023-01-18T22:54:55.076Z,989.53
2023-01-18T22:59:55.045Z,989.63
2023-01-18T23:04:55.050Z,989.61
2023-01-18T23:09:54.894Z,989.80
2023-01-18T23:14:54.849Z,989.80
2023-01-18T23:19:54.878Z,989.97
2023-01-18T23:24:54.889Z,990.15
2023-01-18T23:29:54.660Z,990.19
2023-01-18T23:34:54.567Z,990.17
2023-01-18T23:39:54.593Z,990.23
2023-01-18T23:44:54.422Z,990.34
2023-01-18T23:49:54.395Z,990.48
2023-01-18T23:54:54.373Z,990.64
2023-01-18T23:59:54.383Z,990.62
